sensor_id;sensor_type;location;lat;lon;timestamp;temperature;humidity
5775;DHT22;2913;51.120;6.772;2022-11-18T00:01:32;10.10;99.90
5775;DHT22;2913;51.120;6.772;2022-11-18T00:03:58;10.00;99.90
5775;DHT22;2913;51.120;6.772;2022-11-18T00:06:27;10.00;99.90
5775;DHT22;2913;51.120;6.772;2022-11-18T00:08:54;10.10;99.90
5775;DHT22;2913;51.120;6.772;2022-11-18T00:11:22;10.10;99.90
5775;DHT22;2913;51.120;6.772;2022-11-18T00:14:12;10.10;99.90
5775;DHT22;2913;51.120;6.772;2022-11-18T00:16:53;10.10;99.90
5775;DHT22;2913;51.120;6.772;2022-11-18T00:19:26;10.10;99.90
5775;DHT22;2913;51.120;6.772;2022-11-18T00:21:52;10.00;99.90
5775;DHT22;2913;51.120;6.772;2022-11-18T00:24:19;10.10;99.90
5775;DHT22;2913;51.120;6.772;2022-11-18T00:26:45;10.10;99.90
5775;DHT22;2913;51.120;6.772;2022-11-18T00:29:11;10.10;99.90
5775;DHT22;2913;51.120;6.772;2022-11-18T00:31:37;10.00;99.90
5775;DHT22;2913;51.120;6.772;2022-11-18T00:34:03;10.10;99.90
5775;DHT22;2913;51.120;6.772;2022-11-18T00:36:28;10.10;99.90
5775;DHT22;2913;51.120;6.772;2022-11-18T00:38:54;10.00;99.90
5775;DHT22;2913;51.120;6.772;2022-11-18T00:41:20;10.00;99.90
5775;DHT22;2913;51.120;6.772;2022-11-18T00:43:48;10.00;99.90
5775;DHT22;2913;51.120;6.772;2022-11-18T00:46:14;10.00;99.90
5775;DHT22;2913;51.120;6.772;2022-11-18T00:48:40;10.00;99.90
5775;DHT22;2913;51.120;6.772;2022-11-18T00:51:10;10.00;99.90
5775;DHT22;2913;51.120;6.772;2022-11-18T00:53:40;10.00;99.90
5775;DHT22;2913;51.120;6.772;2022-11-18T00:56:07;9.90;99.90
5775;DHT22;2913;51.120;6.772;2022-11-18T00:58:32;9.90;99.90
5775;DHT22;2913;51.120;6.772;2022-11-18T01:00:59;9.90;99.90
5775;DHT22;2913;51.120;6.772;2022-11-18T01:03:27;9.90;99.90
5775;DHT22;2913;51.120;6.772;2022-11-18T01:05:55;9.90;99.90
5775;DHT22;2913;51.120;6.772;2022-11-18T01:08:23;9.90;99.90
5775;DHT22;2913;51.120;6.772;2022-11-18T01:10:50;10.00;99.90
5775;DHT22;2913;51.120;6.772;2022-11-18T01:13:18;10.00;99.90
5775;DHT22;2913;51.120;6.772;2022-11-18T01:15:53;10.00;99.90
5775;DHT22;2913;51.120;6.772;2022-11-18T01:18:21;10.10;99.90
5775;DHT22;2913;51.120;6.772;2022-11-18T01:20:50;10.10;99.90
5775;DHT22;2913;51.120;6.772;2022-11-18T01:23:18;10.10;99.90
5775;DHT22;2913;51.120;6.772;2022-11-18T01:25:46;10.10;99.90
5775;DHT22;2913;51.120;6.772;2022-11-18T01:28:13;10.00;99.90
5775;DHT22;2913;51.120;6.772;2022-11-18T01:30:46;10.10;99.90
5775;DHT22;2913;51.120;6.772;2022-11-18T01:33:12;10.10;99.90
5775;DHT22;2913;51.120;6.772;2022-11-18T01:35:40;10.10;99.90
5775;DHT22;2913;51.120;6.772;2022-11-18T01:38:10;10.10;99.90
5775;DHT22;2913;51.120;6.772;2022-11-18T01:40:37;10.00;99.90
5775;DHT22;2913;51.120;6.772;2022-11-18T01:43:09;10.00;99.90
5775;DHT22;2913;51.120;6.772;2022-11-18T01:45:39;10.00;99.90
5775;DHT22;2913;51.120;6.772;2022-11-18T01:48:17;10.00;99.90
5775;DHT22;2913;51.120;6.772;2022-11-18T01:50:57;10.00;99.90
5775;DHT22;2913;51.120;6.772;2022-11-18T01:53:30;10.00;99.90
5775;DHT22;2913;51.120;6.772;2022-11-18T01:56:00;9.90;99.90
5775;DHT22;2913;51.120;6.772;2022-11-18T01:58:38;9.90;99.90
5775;DHT22;2913;51.120;6.772;2022-11-18T02:01:05;9.90;99.90
5775;DHT22;2913;51.120;6.772;2022-11-18T02:03:32;9.90;99.90
5775;DHT22;2913;51.120;6.772;2022-11-18T02:06:01;10.00;99.90
5775;DHT22;2913;51.120;6.772;2022-11-18T02:08:29;10.00;99.90
5775;DHT22;2913;51.120;6.772;2022-11-18T02:10:55;10.00;99.90
5775;DHT22;2913;51.120;6.772;2022-11-18T02:13:21;10.00;99.90
5775;DHT22;2913;51.120;6.772;2022-11-18T02:16:06;9.90;99.90
5775;DHT22;2913;51.120;6.772;2022-11-18T02:21:27;10.00;99.90
5775;DHT22;2913;51.120;6.772;2022-11-18T02:29:37;10.10;99.90
5775;DHT22;2913;51.120;6.772;2022-11-18T02:35:01;10.10;99.90
5775;DHT22;2913;51.120;6.772;2022-11-18T02:40:25;10.10;99.90
5775;DHT22;2913;51.120;6.772;2022-11-18T02:42:58;10.10;99.90
5775;DHT22;2913;51.120;6.772;2022-11-18T02:45:25;10.10;99.90
5775;DHT22;2913;51.120;6.772;2022-11-18T02:47:53;10.00;99.90
5775;DHT22;2913;51.120;6.772;2022-11-18T02:50:25;10.00;99.90
5775;DHT22;2913;51.120;6.772;2022-11-18T02:52:57;9.90;99.90
5775;DHT22;2913;51.120;6.772;2022-11-18T02:55:29;9.90;99.90
5775;DHT22;2913;51.120;6.772;2022-11-18T02:57:57;9.90;99.90
5775;DHT22;2913;51.120;6.772;2022-11-18T03:00:23;9.90;99.90
5775;DHT22;2913;51.120;6.772;2022-11-18T03:02:51;9.90;99.90
5775;DHT22;2913;51.120;6.772;2022-11-18T03:07:59;9.80;99.90
5775;DHT22;2913;51.120;6.772;2022-11-18T03:10:33;9.90;99.90
5775;DHT22;2913;51.120;6.772;2022-11-18T03:13:04;9.90;99.90
5775;DHT22;2913;51.120;6.772;2022-11-18T03:15:44;9.90;99.90
5775;DHT22;2913;51.120;6.772;2022-11-18T03:23:58;9.90;99.90
5775;DHT22;2913;51.120;6.772;2022-11-18T03:26:35;9.90;99.90
5775;DHT22;2913;51.120;6.772;2022-11-18T03:29:30;9.80;99.90
5775;DHT22;2913;51.120;6.772;2022-11-18T03:32:05;9.80;99.90
5775;DHT22;2913;51.120;6.772;2022-11-18T03:34:40;9.80;99.90
5775;DHT22;2913;51.120;6.772;2022-11-18T03:37:08;9.80;99.90
5775;DHT22;2913;51.120;6.772;2022-11-18T03:39:40;9.80;99.90
5775;DHT22;2913;51.120;6.772;2022-11-18T03:44:51;9.70;99.90
5775;DHT22;2913;51.120;6.772;2022-11-18T03:47:25;9.80;99.90
5775;DHT22;2913;51.120;6.772;2022-11-18T03:49:58;9.70;99.90
5775;DHT22;2913;51.120;6.772;2022-11-18T03:52:30;9.80;99.90
5775;DHT22;2913;51.120;6.772;2022-11-18T03:54:59;9.80;99.90
5775;DHT22;2913;51.120;6.772;2022-11-18T03:57:41;9.80;99.90
5775;DHT22;2913;51.120;6.772;2022-11-18T04:00:12;9.70;99.90
5775;DHT22;2913;51.120;6.772;2022-11-18T04:02:39;9.70;99.90
5775;DHT22;2913;51.120;6.772;2022-11-18T04:05:07;9.70;99.90
5775;DHT22;2913;51.120;6.772;2022-11-18T04:10:19;9.80;99.90
5775;DHT22;2913;51.120;6.772;2022-11-18T04:12:53;9.70;99.90
5775;DHT22;2913;51.120;6.772;2022-11-18T04:15:20;9.80;99.90
5775;DHT22;2913;51.120;6.772;2022-11-18T04:17:46;9.80;99.90
5775;DHT22;2913;51.120;6.772;2022-11-18T04:20:18;9.80;99.90
5775;DHT22;2913;51.120;6.772;2022-11-18T04:22:46;9.80;99.90
5775;DHT22;2913;51.120;6.772;2022-11-18T04:25:12;9.80;99.90
5775;DHT22;2913;51.120;6.772;2022-11-18T04:27:43;9.80;99.90
5775;DHT22;2913;51.120;6.772;2022-11-18T04:30:09;9.80;99.90
5775;DHT22;2913;51.120;6.772;2022-11-18T04:32:35;9.80;99.90
5775;DHT22;2913;51.120;6.772;2022-11-18T04:35:01;9.90;99.90
5775;DHT22;2913;51.120;6.772;2022-11-18T04:37:26;9.90;99.90
5775;DHT22;2913;51.120;6.772;2022-11-18T04:39:52;9.90;99.90
5775;DHT22;2913;51.120;6.772;2022-11-18T04:42:20;9.90;99.90
5775;DHT22;2913;51.120;6.772;2022-11-18T04:44:48;9.90;99.90
5775;DHT22;2913;51.120;6.772;2022-11-18T04:47:16;9.90;99.90
5775;DHT22;2913;51.120;6.772;2022-11-18T04:49:44;9.90;99.90
5775;DHT22;2913;51.120;6.772;2022-11-18T04:52:10;10.00;99.90
5775;DHT22;2913;51.120;6.772;2022-11-18T04:54:37;9.90;99.90
5775;DHT22;2913;51.120;6.772;2022-11-18T04:57:03;10.00;99.90
5775;DHT22;2913;51.120;6.772;2022-11-18T04:59:29;9.90;99.90
5775;DHT22;2913;51.120;6.772;2022-11-18T05:01:57;9.90;99.90
5775;DHT22;2913;51.120;6.772;2022-11-18T05:04:30;9.90;99.90
5775;DHT22;2913;51.120;6.772;2022-11-18T05:07:00;9.90;99.90
5775;DHT22;2913;51.120;6.772;2022-11-18T05:09:26;9.90;99.90
5775;DHT22;2913;51.120;6.772;2022-11-18T05:11:55;9.90;99.90
5775;DHT22;2913;51.120;6.772;2022-11-18T05:14:59;9.90;99.90
5775;DHT22;2913;51.120;6.772;2022-11-18T05:17:25;9.90;99.90
5775;DHT22;2913;51.120;6.772;2022-11-18T05:19:53;9.90;99.90
5775;DHT22;2913;51.120;6.772;2022-11-18T05:22:21;9.80;99.90
5775;DHT22;2913;51.120;6.772;2022-11-18T05:24:46;9.80;99.90
5775;DHT22;2913;51.120;6.772;2022-11-18T05:27:13;9.80;99.90
5775;DHT22;2913;51.120;6.772;2022-11-18T05:29:39;9.80;99.90
5775;DHT22;2913;51.120;6.772;2022-11-18T05:32:04;9.80;99.90
5775;DHT22;2913;51.120;6.772;2022-11-18T05:34:30;9.80;99.90
5775;DHT22;2913;51.120;6.772;2022-11-18T05:36:56;9.80;99.90
5775;DHT22;2913;51.120;6.772;2022-11-18T05:39:21;9.80;99.90
5775;DHT22;2913;51.120;6.772;2022-11-18T05:41:47;9.80;99.90
5775;DHT22;2913;51.120;6.772;2022-11-18T05:44:33;9.70;99.90
5775;DHT22;2913;51.120;6.772;2022-11-18T05:47:01;9.70;99.90
5775;DHT22;2913;51.120;6.772;2022-11-18T05:49:27;9.70;99.90
5775;DHT22;2913;51.120;6.772;2022-11-18T05:51:53;9.70;99.90
5775;DHT22;2913;51.120;6.772;2022-11-18T05:54:18;9.70;99.90
5775;DHT22;2913;51.120;6.772;2022-11-18T05:56:47;9.70;99.90
5775;DHT22;2913;51.120;6.772;2022-11-18T05:59:15;9.70;99.90
5775;DHT22;2913;51.120;6.772;2022-11-18T06:04:45;9.70;99.90
5775;DHT22;2913;51.120;6.772;2022-11-18T06:07:22;9.60;99.90
5775;DHT22;2913;51.120;6.772;2022-11-18T06:09:54;9.70;99.90
5775;DHT22;2913;51.120;6.772;2022-11-18T06:12:27;9.60;99.90
5775;DHT22;2913;51.120;6.772;2022-11-18T06:14:55;9.60;99.90
5775;DHT22;2913;51.120;6.772;2022-11-18T06:17:27;9.70;99.90
5775;DHT22;2913;51.120;6.772;2022-11-18T06:19:56;9.60;99.90
5775;DHT22;2913;51.120;6.772;2022-11-18T06:22:22;9.70;99.90
5775;DHT22;2913;51.120;6.772;2022-11-18T06:24:48;9.70;99.90
5775;DHT22;2913;51.120;6.772;2022-11-18T06:27:14;9.70;99.90
5775;DHT22;2913;51.120;6.772;2022-11-18T06:29:42;9.70;99.90
5775;DHT22;2913;51.120;6.772;2022-11-18T06:32:10;9.70;99.90
5775;DHT22;2913;51.120;6.772;2022-11-18T06:34:36;9.70;99.90
5775;DHT22;2913;51.120;6.772;2022-11-18T06:37:14;9.60;99.90
5775;DHT22;2913;51.120;6.772;2022-11-18T06:39:41;9.60;99.90
5775;DHT22;2913;51.120;6.772;2022-11-18T06:42:09;9.60;99.90
5775;DHT22;2913;51.120;6.772;2022-11-18T06:44:37;9.60;99.90
5775;DHT22;2913;51.120;6.772;2022-11-18T06:47:05;9.70;99.90
5775;DHT22;2913;51.120;6.772;2022-11-18T06:49:33;9.70;99.90
5775;DHT22;2913;51.120;6.772;2022-11-18T06:52:01;9.60;99.90
5775;DHT22;2913;51.120;6.772;2022-11-18T06:54:27;9.60;99.90
5775;DHT22;2913;51.120;6.772;2022-11-18T06:56:55;9.70;99.90
5775;DHT22;2913;51.120;6.772;2022-11-18T06:59:20;9.70;99.90
5775;DHT22;2913;51.120;6.772;2022-11-18T07:01:48;9.60;99.90
5775;DHT22;2913;51.120;6.772;2022-11-18T07:04:14;9.60;99.90
5775;DHT22;2913;51.120;6.772;2022-11-18T07:06:40;9.70;99.90
5775;DHT22;2913;51.120;6.772;2022-11-18T07:09:08;9.60;99.90
5775;DHT22;2913;51.120;6.772;2022-11-18T07:11:36;9.60;99.90
5775;DHT22;2913;51.120;6.772;2022-11-18T07:14:04;9.70;99.90
5775;DHT22;2913;51.120;6.772;2022-11-18T07:16:30;9.60;99.90
5775;DHT22;2913;51.120;6.772;2022-11-18T07:18:58;9.70;99.90
5775;DHT22;2913;51.120;6.772;2022-11-18T07:21:28;9.60;99.90
5775;DHT22;2913;51.120;6.772;2022-11-18T07:23:56;9.70;99.90
5775;DHT22;2913;51.120;6.772;2022-11-18T07:26:24;9.70;99.90
5775;DHT22;2913;51.120;6.772;2022-11-18T07:28:52;9.70;99.90
5775;DHT22;2913;51.120;6.772;2022-11-18T07:31:19;9.80;99.90
5775;DHT22;2913;51.120;6.772;2022-11-18T07:33:50;9.80;99.90
5775;DHT22;2913;51.120;6.772;2022-11-18T07:36:21;9.80;99.90
5775;DHT22;2913;51.120;6.772;2022-11-18T07:38:47;9.90;99.90
5775;DHT22;2913;51.120;6.772;2022-11-18T07:41:24;9.90;99.90
5775;DHT22;2913;51.120;6.772;2022-11-18T07:43:52;9.90;99.90
5775;DHT22;2913;51.120;6.772;2022-11-18T07:46:27;9.90;99.90
5775;DHT22;2913;51.120;6.772;2022-11-18T07:48:57;10.00;99.90
5775;DHT22;2913;51.120;6.772;2022-11-18T07:51:25;9.90;99.90
5775;DHT22;2913;51.120;6.772;2022-11-18T07:53:53;9.90;99.90
5775;DHT22;2913;51.120;6.772;2022-11-18T07:56:21;10.00;99.90
5775;DHT22;2913;51.120;6.772;2022-11-18T07:58:53;10.10;99.90
5775;DHT22;2913;51.120;6.772;2022-11-18T08:01:22;10.10;99.90
5775;DHT22;2913;51.120;6.772;2022-11-18T08:03:48;10.10;99.90
5775;DHT22;2913;51.120;6.772;2022-11-18T08:06:17;10.10;99.90
5775;DHT22;2913;51.120;6.772;2022-11-18T08:08:43;10.20;99.90
5775;DHT22;2913;51.120;6.772;2022-11-18T08:11:13;10.10;99.90
5775;DHT22;2913;51.120;6.772;2022-11-18T08:13:41;10.10;99.90
5775;DHT22;2913;51.120;6.772;2022-11-18T08:16:15;10.10;99.90
5775;DHT22;2913;51.120;6.772;2022-11-18T08:18:44;10.20;99.90
5775;DHT22;2913;51.120;6.772;2022-11-18T08:21:16;10.20;99.90
5775;DHT22;2913;51.120;6.772;2022-11-18T08:23:42;10.30;99.90
5775;DHT22;2913;51.120;6.772;2022-11-18T08:26:10;10.30;99.90
5775;DHT22;2913;51.120;6.772;2022-11-18T08:28:37;10.30;99.90
5775;DHT22;2913;51.120;6.772;2022-11-18T08:31:10;10.30;99.90
5775;DHT22;2913;51.120;6.772;2022-11-18T08:33:36;10.30;99.90
5775;DHT22;2913;51.120;6.772;2022-11-18T08:36:10;10.30;99.90
5775;DHT22;2913;51.120;6.772;2022-11-18T08:38:36;10.40;99.90
5775;DHT22;2913;51.120;6.772;2022-11-18T08:41:05;10.50;99.90
5775;DHT22;2913;51.120;6.772;2022-11-18T08:43:33;10.60;99.90
5775;DHT22;2913;51.120;6.772;2022-11-18T08:45:59;10.70;99.90
5775;DHT22;2913;51.120;6.772;2022-11-18T08:48:24;10.80;99.90
5775;DHT22;2913;51.120;6.772;2022-11-18T08:50:51;10.90;99.90
5775;DHT22;2913;51.120;6.772;2022-11-18T08:53:17;11.00;99.90
5775;DHT22;2913;51.120;6.772;2022-11-18T08:55:42;11.10;99.90
5775;DHT22;2913;51.120;6.772;2022-11-18T08:58:08;11.10;99.90
5775;DHT22;2913;51.120;6.772;2022-11-18T09:00:36;11.10;99.90
5775;DHT22;2913;51.120;6.772;2022-11-18T09:03:01;11.20;99.90
5775;DHT22;2913;51.120;6.772;2022-11-18T09:05:29;11.20;99.90
5775;DHT22;2913;51.120;6.772;2022-11-18T09:07:55;11.30;99.90
5775;DHT22;2913;51.120;6.772;2022-11-18T09:10:27;11.40;99.90
5775;DHT22;2913;51.120;6.772;2022-11-18T09:12:53;11.40;99.90
5775;DHT22;2913;51.120;6.772;2022-11-18T09:15:18;11.40;99.90
5775;DHT22;2913;51.120;6.772;2022-11-18T09:17:44;11.40;99.90
5775;DHT22;2913;51.120;6.772;2022-11-18T09:20:10;11.40;99.90
5775;DHT22;2913;51.120;6.772;2022-11-18T09:22:36;11.40;99.90
5775;DHT22;2913;51.120;6.772;2022-11-18T09:25:02;11.50;99.90
5775;DHT22;2913;51.120;6.772;2022-11-18T09:27:27;11.50;99.90
5775;DHT22;2913;51.120;6.772;2022-11-18T09:29:53;11.50;99.90
5775;DHT22;2913;51.120;6.772;2022-11-18T09:32:21;11.60;99.90
5775;DHT22;2913;51.120;6.772;2022-11-18T09:34:46;11.50;99.90
5775;DHT22;2913;51.120;6.772;2022-11-18T09:37:12;11.50;99.90
5775;DHT22;2913;51.120;6.772;2022-11-18T09:39:38;11.50;99.90
5775;DHT22;2913;51.120;6.772;2022-11-18T09:47:29;11.40;99.90
5775;DHT22;2913;51.120;6.772;2022-11-18T09:49:58;11.50;99.90
5775;DHT22;2913;51.120;6.772;2022-11-18T09:52:31;11.50;99.90
5775;DHT22;2913;51.120;6.772;2022-11-18T09:54:58;11.50;99.90
5775;DHT22;2913;51.120;6.772;2022-11-18T09:59:55;11.40;99.90
5775;DHT22;2913;51.120;6.772;2022-11-18T10:02:28;11.50;99.90
5775;DHT22;2913;51.120;6.772;2022-11-18T10:04:58;11.60;99.90
5775;DHT22;2913;51.120;6.772;2022-11-18T10:07:35;11.70;99.90
5775;DHT22;2913;51.120;6.772;2022-11-18T10:10:15;11.60;99.90
5775;DHT22;2913;51.120;6.772;2022-11-18T10:12:54;11.70;99.90
5775;DHT22;2913;51.120;6.772;2022-11-18T10:15:32;11.80;99.90
5775;DHT22;2913;51.120;6.772;2022-11-18T10:24:23;12.10;99.90
5775;DHT22;2913;51.120;6.772;2022-11-18T10:26:34;12.10;99.90
5775;DHT22;2913;51.120;6.772;2022-11-18T10:29:00;12.10;99.90
5775;DHT22;2913;51.120;6.772;2022-11-18T10:31:28;12.10;99.90
5775;DHT22;2913;51.120;6.772;2022-11-18T10:34:00;12.20;99.90
5775;DHT22;2913;51.120;6.772;2022-11-18T10:36:28;12.10;99.90
5775;DHT22;2913;51.120;6.772;2022-11-18T10:39:15;12.20;99.90
5775;DHT22;2913;51.120;6.772;2022-11-18T10:41:50;12.30;99.90
5775;DHT22;2913;51.120;6.772;2022-11-18T10:47:21;12.50;99.90
5775;DHT22;2913;51.120;6.772;2022-11-18T10:49:50;12.50;99.90
5775;DHT22;2913;51.120;6.772;2022-11-18T10:52:16;12.50;99.90
5775;DHT22;2913;51.120;6.772;2022-11-18T10:54:44;12.60;99.90
5775;DHT22;2913;51.120;6.772;2022-11-18T10:57:21;12.50;99.90
5775;DHT22;2913;51.120;6.772;2022-11-18T10:59:56;12.50;99.90
5775;DHT22;2913;51.120;6.772;2022-11-18T11:02:40;12.40;99.90
5775;DHT22;2913;51.120;6.772;2022-11-18T11:05:19;12.50;99.90
5775;DHT22;2913;51.120;6.772;2022-11-18T11:10:57;12.70;99.90
5775;DHT22;2913;51.120;6.772;2022-11-18T11:13:26;12.90;99.90
5775;DHT22;2913;51.120;6.772;2022-11-18T11:15:58;12.90;99.90
5775;DHT22;2913;51.120;6.772;2022-11-18T11:18:29;12.90;99.90
5775;DHT22;2913;51.120;6.772;2022-11-18T11:21:14;13.10;99.90
5775;DHT22;2913;51.120;6.772;2022-11-18T11:23:40;13.10;99.90
5775;DHT22;2913;51.120;6.772;2022-11-18T11:40:32;13.50;99.90
5775;DHT22;2913;51.120;6.772;2022-11-18T11:45:55;13.70;99.90
5775;DHT22;2913;51.120;6.772;2022-11-18T11:50:55;13.50;99.90
5775;DHT22;2913;51.120;6.772;2022-11-18T12:02:01;13.20;99.90
5775;DHT22;2913;51.120;6.772;2022-11-18T12:05:15;13.20;99.90
5775;DHT22;2913;51.120;6.772;2022-11-18T12:08:27;13.20;99.90
5775;DHT22;2913;51.120;6.772;2022-11-18T12:16:17;12.70;99.90
5775;DHT22;2913;51.120;6.772;2022-11-18T12:29:40;12.30;99.90
5775;DHT22;2913;51.120;6.772;2022-11-18T12:32:38;12.20;99.90
5775;DHT22;2913;51.120;6.772;2022-11-18T12:46:08;12.10;99.90
5775;DHT22;2913;51.120;6.772;2022-11-18T12:48:40;12.10;99.90
5775;DHT22;2913;51.120;6.772;2022-11-18T12:53:46;12.00;99.90
5775;DHT22;2913;51.120;6.772;2022-11-18T12:58:49;12.10;99.90
5775;DHT22;2913;51.120;6.772;2022-11-18T13:01:17;12.10;99.90
5775;DHT22;2913;51.120;6.772;2022-11-18T13:03:46;12.10;99.90
5775;DHT22;2913;51.120;6.772;2022-11-18T13:06:31;12.00;99.90
5775;DHT22;2913;51.120;6.772;2022-11-18T13:08:59;12.10;99.90
5775;DHT22;2913;51.120;6.772;2022-11-18T13:11:30;12.00;99.90
5775;DHT22;2913;51.120;6.772;2022-11-18T13:17:34;12.00;99.90
5775;DHT22;2913;51.120;6.772;2022-11-18T13:25:54;12.00;99.90
5775;DHT22;2913;51.120;6.772;2022-11-18T13:34:26;12.00;99.90
5775;DHT22;2913;51.120;6.772;2022-11-18T13:36:54;11.90;99.90
5775;DHT22;2913;51.120;6.772;2022-11-18T13:44:36;12.00;99.90
5775;DHT22;2913;51.120;6.772;2022-11-18T13:52:39;12.10;99.90
5775;DHT22;2913;51.120;6.772;2022-11-18T13:55:11;12.10;99.90
5775;DHT22;2913;51.120;6.772;2022-11-18T13:57:41;12.00;99.90
5775;DHT22;2913;51.120;6.772;2022-11-18T14:00:24;12.10;99.90
5775;DHT22;2913;51.120;6.772;2022-11-18T14:02:55;12.10;99.90
5775;DHT22;2913;51.120;6.772;2022-11-18T14:05:27;12.10;99.90
5775;DHT22;2913;51.120;6.772;2022-11-18T14:08:04;12.10;99.90
5775;DHT22;2913;51.120;6.772;2022-11-18T14:10:42;12.20;99.90
5775;DHT22;2913;51.120;6.772;2022-11-18T14:13:26;12.20;99.90
5775;DHT22;2913;51.120;6.772;2022-11-18T14:16:00;12.20;99.90
5775;DHT22;2913;51.120;6.772;2022-11-18T14:18:34;12.20;99.90
5775;DHT22;2913;51.120;6.772;2022-11-18T14:21:02;12.10;99.90
5775;DHT22;2913;51.120;6.772;2022-11-18T14:23:35;12.10;99.90
5775;DHT22;2913;51.120;6.772;2022-11-18T14:26:05;12.00;99.90
5775;DHT22;2913;51.120;6.772;2022-11-18T14:28:33;12.00;99.90
5775;DHT22;2913;51.120;6.772;2022-11-18T14:31:21;12.10;99.90
5775;DHT22;2913;51.120;6.772;2022-11-18T14:36:37;12.20;99.90
5775;DHT22;2913;51.120;6.772;2022-11-18T14:39:23;11.90;99.90
5775;DHT22;2913;51.120;6.772;2022-11-18T14:41:50;12.00;99.90
5775;DHT22;2913;51.120;6.772;2022-11-18T14:44:18;12.00;99.90
5775;DHT22;2913;51.120;6.772;2022-11-18T14:47:00;12.00;99.90
5775;DHT22;2913;51.120;6.772;2022-11-18T14:49:29;11.90;99.90
5775;DHT22;2913;51.120;6.772;2022-11-18T14:51:57;11.90;99.90
5775;DHT22;2913;51.120;6.772;2022-11-18T14:54:29;11.90;99.90
5775;DHT22;2913;51.120;6.772;2022-11-18T14:56:57;11.80;99.90
5775;DHT22;2913;51.120;6.772;2022-11-18T14:59:24;11.80;99.90
5775;DHT22;2913;51.120;6.772;2022-11-18T15:01:52;11.80;99.90
5775;DHT22;2913;51.120;6.772;2022-11-18T15:04:20;11.80;99.90
5775;DHT22;2913;51.120;6.772;2022-11-18T15:06:46;11.70;99.90
5775;DHT22;2913;51.120;6.772;2022-11-18T15:09:14;11.60;99.90
5775;DHT22;2913;51.120;6.772;2022-11-18T15:11:42;11.60;99.90
5775;DHT22;2913;51.120;6.772;2022-11-18T15:14:09;11.50;99.90
5775;DHT22;2913;51.120;6.772;2022-11-18T15:16:35;11.40;99.90
5775;DHT22;2913;51.120;6.772;2022-11-18T15:19:04;11.50;99.90
5775;DHT22;2913;51.120;6.772;2022-11-18T15:21:32;11.40;99.90
5775;DHT22;2913;51.120;6.772;2022-11-18T15:23:58;11.40;99.90
5775;DHT22;2913;51.120;6.772;2022-11-18T15:26:29;11.40;99.90
5775;DHT22;2913;51.120;6.772;2022-11-18T15:28:57;11.30;99.90
5775;DHT22;2913;51.120;6.772;2022-11-18T15:31:23;11.30;99.90
5775;DHT22;2913;51.120;6.772;2022-11-18T15:33:49;11.20;99.90
5775;DHT22;2913;51.120;6.772;2022-11-18T15:38:42;11.10;99.90
5775;DHT22;2913;51.120;6.772;2022-11-18T15:43:49;10.90;99.90
5775;DHT22;2913;51.120;6.772;2022-11-18T15:46:17;11.00;99.90
5775;DHT22;2913;51.120;6.772;2022-11-18T15:48:46;11.00;99.90
5775;DHT22;2913;51.120;6.772;2022-11-18T15:51:13;10.90;99.90
5775;DHT22;2913;51.120;6.772;2022-11-18T15:53:41;10.90;99.90
5775;DHT22;2913;51.120;6.772;2022-11-18T16:01:27;10.80;99.90
5775;DHT22;2913;51.120;6.772;2022-11-18T16:03:54;10.80;99.90
5775;DHT22;2913;51.120;6.772;2022-11-18T16:06:23;10.80;99.90
5775;DHT22;2913;51.120;6.772;2022-11-18T16:08:48;10.70;99.90
5775;DHT22;2913;51.120;6.772;2022-11-18T16:11:16;10.70;99.90
5775;DHT22;2913;51.120;6.772;2022-11-18T16:14:05;10.70;99.90
5775;DHT22;2913;51.120;6.772;2022-11-18T16:16:32;10.70;99.90
5775;DHT22;2913;51.120;6.772;2022-11-18T16:19:00;10.60;99.90
5775;DHT22;2913;51.120;6.772;2022-11-18T16:21:28;10.60;99.90
5775;DHT22;2913;51.120;6.772;2022-11-18T16:24:01;10.60;99.90
5775;DHT22;2913;51.120;6.772;2022-11-18T16:26:27;10.60;99.90
5775;DHT22;2913;51.120;6.772;2022-11-18T16:28:56;10.60;99.90
5775;DHT22;2913;51.120;6.772;2022-11-18T16:31:22;10.70;99.90
5775;DHT22;2913;51.120;6.772;2022-11-18T16:34:07;10.70;99.90
5775;DHT22;2913;51.120;6.772;2022-11-18T16:36:34;10.70;99.90
5775;DHT22;2913;51.120;6.772;2022-11-18T16:39:07;10.70;99.90
5775;DHT22;2913;51.120;6.772;2022-11-18T16:41:35;10.70;99.90
5775;DHT22;2913;51.120;6.772;2022-11-18T16:44:04;10.70;99.90
5775;DHT22;2913;51.120;6.772;2022-11-18T16:46:31;10.70;99.90
5775;DHT22;2913;51.120;6.772;2022-11-18T16:48:58;10.60;99.90
5775;DHT22;2913;51.120;6.772;2022-11-18T16:51:28;10.60;99.90
5775;DHT22;2913;51.120;6.772;2022-11-18T16:53:59;10.60;99.90
5775;DHT22;2913;51.120;6.772;2022-11-18T16:56:28;10.60;99.90
5775;DHT22;2913;51.120;6.772;2022-11-18T17:01:23;10.60;99.90
5775;DHT22;2913;51.120;6.772;2022-11-18T17:03:53;10.60;99.90
5775;DHT22;2913;51.120;6.772;2022-11-18T17:06:20;10.60;99.90
5775;DHT22;2913;51.120;6.772;2022-11-18T17:08:51;10.60;99.90
5775;DHT22;2913;51.120;6.772;2022-11-18T17:11:16;10.50;99.90
5775;DHT22;2913;51.120;6.772;2022-11-18T17:13:42;10.50;99.90
5775;DHT22;2913;51.120;6.772;2022-11-18T17:16:11;10.50;99.90
5775;DHT22;2913;51.120;6.772;2022-11-18T17:18:37;10.40;99.90
5775;DHT22;2913;51.120;6.772;2022-11-18T17:21:04;10.40;99.90
5775;DHT22;2913;51.120;6.772;2022-11-18T17:23:30;10.30;99.90
5775;DHT22;2913;51.120;6.772;2022-11-18T17:25:59;10.30;99.90
5775;DHT22;2913;51.120;6.772;2022-11-18T17:28:25;10.30;99.90
5775;DHT22;2913;51.120;6.772;2022-11-18T17:30:50;10.20;99.90
5775;DHT22;2913;51.120;6.772;2022-11-18T17:33:16;10.20;99.90
5775;DHT22;2913;51.120;6.772;2022-11-18T17:35:51;10.20;99.90
5775;DHT22;2913;51.120;6.772;2022-11-18T17:38:21;10.10;99.90
5775;DHT22;2913;51.120;6.772;2022-11-18T17:40:52;10.00;99.90
5775;DHT22;2913;51.120;6.772;2022-11-18T17:43:21;10.00;99.90
5775;DHT22;2913;51.120;6.772;2022-11-18T17:45:55;10.00;99.90
5775;DHT22;2913;51.120;6.772;2022-11-18T17:48:23;10.00;99.90
5775;DHT22;2913;51.120;6.772;2022-11-18T17:50:50;9.90;99.90
5775;DHT22;2913;51.120;6.772;2022-11-18T17:53:16;10.00;99.90
5775;DHT22;2913;51.120;6.772;2022-11-18T17:55:45;9.90;99.90
5775;DHT22;2913;51.120;6.772;2022-11-18T17:58:11;9.90;99.90
5775;DHT22;2913;51.120;6.772;2022-11-18T18:00:37;10.00;99.90
5775;DHT22;2913;51.120;6.772;2022-11-18T18:03:06;10.00;99.90
5775;DHT22;2913;51.120;6.772;2022-11-18T18:05:31;10.00;99.90
5775;DHT22;2913;51.120;6.772;2022-11-18T18:07:59;10.00;99.90
5775;DHT22;2913;51.120;6.772;2022-11-18T18:10:25;10.10;99.90
5775;DHT22;2913;51.120;6.772;2022-11-18T18:12:52;10.10;99.90
5775;DHT22;2913;51.120;6.772;2022-11-18T18:15:36;10.10;99.90
5775;DHT22;2913;51.120;6.772;2022-11-18T18:18:02;10.20;99.90
5775;DHT22;2913;51.120;6.772;2022-11-18T18:20:28;10.10;99.90
5775;DHT22;2913;51.120;6.772;2022-11-18T18:22:54;10.20;99.90
5775;DHT22;2913;51.120;6.772;2022-11-18T18:25:23;10.10;99.90
5775;DHT22;2913;51.120;6.772;2022-11-18T18:27:48;10.10;99.90
5775;DHT22;2913;51.120;6.772;2022-11-18T18:30:14;10.20;99.90
5775;DHT22;2913;51.120;6.772;2022-11-18T18:32:49;10.20;99.90
5775;DHT22;2913;51.120;6.772;2022-11-18T18:35:15;10.20;99.90
5775;DHT22;2913;51.120;6.772;2022-11-18T18:37:41;10.20;99.90
5775;DHT22;2913;51.120;6.772;2022-11-18T18:40:07;10.10;99.90
5775;DHT22;2913;51.120;6.772;2022-11-18T18:42:32;10.10;99.90
5775;DHT22;2913;51.120;6.772;2022-11-18T18:45:00;10.00;99.90
5775;DHT22;2913;51.120;6.772;2022-11-18T18:47:45;10.10;99.90
5775;DHT22;2913;51.120;6.772;2022-11-18T18:50:10;10.10;99.90
5775;DHT22;2913;51.120;6.772;2022-11-18T18:52:36;10.10;99.90
5775;DHT22;2913;51.120;6.772;2022-11-18T18:55:04;10.00;99.90
5775;DHT22;2913;51.120;6.772;2022-11-18T18:57:31;10.00;99.90